Time;durP1;ratioP1;P1;durP2;ratioP2;P2;SDS_P1;SDS_P2;PMS_P1;PMS_P2;Temp;Humidity;BMP_temperature;BMP_pressure;BME280_temperature;BME280_humidity;BME280_pressure;Samples;Min_cycle;Max_cycle;Signal;HPM_P1;HPM_P2
2023/02/24 02:10:44;;;;;;;11.53;2.30;;;2.00;99.90;;;;;;4860312;29;38356;-83
2023/02/24 02:18:58;;;;;;;16.90;4.50;;;2.30;99.90;;;;;;5422913;23;20051;-83
2023/02/24 02:33:11;;;;;;;12.50;2.53;;;2.40;99.90;;;;;;5389205;23;20050;-84
2023/02/24 02:44:06;;;;;;;15.57;1.90;;;2.50;99.90;;;;;;5506802;23;20058;-83
2023/02/24 02:47:07;;;;;;;18.00;2.40;;;2.50;99.90;;;;;;4886358;29;47050;-83
2023/02/24 02:56:06;;;;;;;4.50;1.25;;;2.80;99.90;;;;;;5916267;23;20024;-83
2023/02/24 02:59:02;;;;;;;20.53;1.73;;;2.80;99.90;;;;;;4945983;28;49681;-83
2023/02/24 03:01:49;;;;;;;11.87;1.90;;;2.90;99.90;;;;;;4928172;28;40234;-84
2023/02/24 03:07:33;;;;;;;14.17;1.60;;;2.90;99.90;;;;;;5312543;23;20034;-83
2023/02/24 03:10:09;;;;;;;14.67;3.00;;;2.90;99.90;;;;;;4936910;28;48549;-83
2023/02/24 03:12:48;;;;;;;15.07;1.97;;;3.00;99.90;;;;;;4938248;29;47310;-83
2023/02/24 03:21:50;;;;;;;14.93;2.70;;;3.30;99.90;;;;;;5211633;23;20052;-83
2023/02/24 03:24:43;;;;;;;6.60;1.40;;;3.50;99.90;;;;;;4948302;28;50245;-83
2023/02/24 03:27:54;;;;;;;13.97;1.40;;;3.50;99.90;;;;;;4938810;28;37721;-83
2023/02/24 03:31:05;;;;;;;16.30;2.37;;;3.50;99.90;;;;;;4941466;28;39602;-82
2023/02/24 03:34:11;;;;;;;7.53;1.40;;;3.40;99.90;;;;;;4921542;28;49330;-83
2023/02/24 03:36:45;;;;;;;12.33;1.50;;;3.30;99.90;;;;;;4949367;28;48913;-83
2023/02/24 03:39:52;;;;;;;7.93;1.30;;;3.30;99.90;;;;;;4930843;28;39219;-84
2023/02/24 03:42:37;;;;;;;10.53;1.40;;;3.40;99.90;;;;;;5078356;23;39419;-82
2023/02/24 03:45:11;;;;;;;10.20;1.40;;;3.50;99.90;;;;;;4949452;28;38559;-82
2023/02/24 03:48:01;;;;;;;6.07;1.10;;;3.70;99.90;;;;;;4917275;28;47657;-82
2023/02/24 03:50:54;;;;;;;11.43;1.63;;;3.70;99.90;;;;;;4947172;28;39241;-84
2023/02/24 03:54:29;;;;;;;8.73;1.50;;;3.70;99.90;;;;;;4933940;28;50200;-83
2023/02/24 04:04:54;;;;;;;14.40;1.67;;;4.00;99.90;;;;;;5345780;23;20023;-82
2023/02/24 04:08:22;;;;;;;8.43;1.13;;;3.90;99.90;;;;;;4956566;28;38474;-83
2023/02/24 04:12:02;;;;;;;7.17;1.57;;;3.80;99.90;;;;;;4835044;29;39534;-83
2023/02/24 04:20:28;;;;;;;5.93;1.43;;;3.30;99.90;;;;;;5103108;23;20048;-84
2023/02/24 04:23:23;;;;;;;12.03;1.50;;;3.20;99.90;;;;;;4931050;28;48099;-82
2023/02/24 04:26:01;;;;;;;6.53;1.07;;;3.20;99.90;;;;;;4915288;28;48663;-84
2023/02/24 04:28:52;;;;;;;14.00;1.60;;;3.30;99.90;;;;;;4909793;28;38712;-82
2023/02/24 04:32:19;;;;;;;7.40;1.40;;;3.40;99.90;;;;;;4918914;28;38684;-83
2023/02/24 04:34:50;;;;;;;14.83;1.83;;;3.50;99.90;;;;;;5202120;23;49905;-82
2023/02/24 04:37:43;;;;;;;8.13;1.47;;;3.60;99.90;;;;;;4921600;28;38823;-83
2023/02/24 04:51:05;;;;;;;10.60;1.27;;;3.50;99.90;;;;;;5570267;23;20051;-84
2023/02/24 04:54:09;;;;;;;13.17;1.57;;;3.50;99.90;;;;;;4900320;29;48957;-84
2023/02/24 05:00:01;;;;;;;9.50;1.20;;;3.40;99.90;;;;;;4904063;23;20163;-83
2023/02/24 05:03:00;;;;;;;10.17;1.20;;;3.40;99.90;;;;;;4900980;29;38387;-83
2023/02/24 05:05:41;;;;;;;9.50;1.20;;;3.30;99.90;;;;;;4898114;29;38536;-83
2023/02/24 05:08:42;;;;;;;14.47;2.40;;;3.40;99.90;;;;;;4894289;29;39474;-83
2023/02/24 05:11:33;;;;;;;13.57;1.80;;;3.40;99.90;;;;;;4906643;28;39221;-84
2023/02/24 05:14:29;;;;;;;4.83;1.10;;;3.40;99.90;;;;;;4912068;29;39679;-83
2023/02/24 05:26:30;;;;;;;8.37;1.83;;;3.40;99.90;;;;;;4952777;28;48532;-83
2023/02/24 05:29:25;;;;;;;8.30;1.93;;;3.40;99.90;;;;;;4952840;28;49702;-84
2023/02/24 05:32:15;;;;;;;8.17;1.87;;;3.40;99.90;;;;;;4940833;28;39237;-83
2023/02/24 05:35:13;;;;;;;8.43;1.50;;;3.40;99.90;;;;;;4961605;28;49987;-83
2023/02/24 05:37:48;;;;;;;9.63;1.90;;;3.50;99.90;;;;;;4968077;28;47645;-82
2023/02/24 05:40:39;;;;;;;7.73;1.50;;;3.60;99.90;;;;;;4946041;28;37961;-84
2023/02/24 05:43:30;;;;;;;;;;;3.60;99.90;;;;;;4961349;28;40424;-83
2023/02/24 05:49:14;;;;;;;13.67;1.70;;;3.70;99.90;;;;;;5119825;23;20040;-83
2023/02/24 05:52:01;;;;;;;10.17;2.07;;;3.70;99.90;;;;;;4978924;23;48075;-83
2023/02/24 05:54:41;;;;;;;11.63;1.80;;;3.80;99.90;;;;;;4888580;29;40054;-84
2023/02/24 05:57:31;;;;;;;9.63;2.00;;;3.80;99.90;;;;;;4907840;28;38936;-83
2023/02/24 06:02:48;;;;;;;8.30;2.43;;;3.90;99.90;;;;;;5296833;23;20038;-81
2023/02/24 06:05:32;;;;;;;8.80;1.60;;;3.90;99.90;;;;;;4924132;28;38146;-82
2023/02/24 06:08:10;;;;;;;12.13;1.80;;;4.00;99.90;;;;;;4945396;28;39192;-83
2023/02/24 06:10:40;;;;;;;10.97;2.10;;;4.00;99.90;;;;;;4954052;28;49995;-84
2023/02/24 06:13:20;;;;;;;7.13;1.85;;;4.00;99.90;;;;;;4947884;28;37482;-82
2023/02/24 06:16:02;;;;;;;10.40;2.43;;;4.00;99.90;;;;;;4944460;28;39342;-83
2023/02/24 06:18:59;;;;;;;12.03;2.30;;;4.10;99.90;;;;;;4946766;28;49300;-82
2023/02/24 06:21:40;;;;;;;7.63;2.23;;;4.20;99.90;;;;;;4932835;28;38487;-82
2023/02/24 06:24:20;;;;;;;13.47;2.53;;;4.20;99.90;;;;;;4956365;28;38332;-82
2023/02/24 06:26:52;;;;;;;10.97;2.53;;;4.20;99.90;;;;;;4963761;28;37849;-82
2023/02/24 06:29:20;;;;;;;8.25;2.33;;;4.20;99.90;;;;;;4972591;28;39531;-82
2023/02/24 06:31:47;;;;;;;11.63;2.37;;;4.20;99.90;;;;;;4950636;28;38744;-83
2023/02/24 06:34:35;;;;;;;11.97;3.30;;;4.20;99.90;;;;;;4966268;28;47701;-82
2023/02/24 06:37:02;;;;;;;12.00;2.30;;;4.30;99.90;;;;;;4964767;28;41155;-81
2023/02/24 06:39:33;;;;;;;7.10;2.50;;;4.30;99.90;;;;;;4956004;28;20048;-82
2023/02/24 06:42:04;;;;;;;9.37;2.20;;;4.30;99.90;;;;;;4976813;28;38455;-81
2023/02/24 06:44:32;;;;;;;11.90;2.77;;;4.30;99.90;;;;;;4966264;28;47517;-82
2023/02/24 06:47:02;;;;;;;9.53;3.00;;;4.30;99.90;;;;;;4968866;28;40354;-82
2023/02/24 06:49:29;;;;;;;7.50;2.70;;;4.40;99.90;;;;;;4942061;28;47303;-81
2023/02/24 06:51:56;;;;;;;10.77;2.40;;;4.40;99.90;;;;;;4959889;28;38662;-80
2023/02/24 06:54:27;;;;;;;7.13;2.33;;;4.60;99.90;;;;;;4954998;28;38779;-81
2023/02/24 06:56:56;;;;;;;12.63;2.80;;;4.60;99.90;;;;;;4959447;28;40313;-79
2023/02/24 06:59:28;;;;;;;8.80;2.73;;;4.70;99.90;;;;;;4951817;28;39435;-79
2023/02/24 07:01:57;;;;;;;7.72;1.90;;;4.80;99.90;;;;;;4944259;28;39618;-78
2023/02/24 07:04:26;;;;;;;10.37;2.73;;;4.90;99.90;;;;;;4928152;28;36169;-79
2023/02/24 07:07:01;;;;;;;15.00;2.50;;;5.00;99.90;;;;;;4932602;29;37781;-82
2023/02/24 07:09:29;;;;;;;15.10;2.90;;;5.00;99.90;;;;;;4939378;29;48523;-81
2023/02/24 07:11:58;;;;;;;15.70;3.63;;;5.10;99.90;;;;;;4938592;29;38510;-81
2023/02/24 07:14:30;;;;;;;11.57;2.60;;;5.30;99.90;;;;;;4940925;28;38684;-81
2023/02/24 07:16:58;;;;;;;10.20;3.17;;;5.20;99.90;;;;;;4950271;29;39261;-81
2023/02/24 07:19:27;;;;;;;11.30;2.70;;;5.30;99.90;;;;;;4941900;28;37635;-80
2023/02/24 07:21:58;;;;;;;16.70;2.80;;;5.30;99.90;;;;;;4927080;29;36996;-82
2023/02/24 07:24:38;;;;;;;16.00;3.00;;;5.40;99.90;;;;;;4929396;29;36977;-81
2023/02/24 07:27:07;;;;;;;17.07;3.40;;;5.40;99.90;;;;;;4926110;28;38959;-81
2023/02/24 07:29:34;;;;;;;9.60;3.13;;;5.40;99.90;;;;;;4933878;29;37054;-81
2023/02/24 07:32:12;;;;;;;15.20;3.07;;;5.50;99.90;;;;;;4932784;29;36645;-81
2023/02/24 07:34:39;;;;;;;10.80;2.63;;;5.50;99.90;;;;;;4928882;29;48555;-79
2023/02/24 07:37:08;;;;;;;15.20;2.33;;;5.50;99.90;;;;;;4921745;29;37923;-80
2023/02/24 07:39:35;;;;;;;13.07;3.10;;;5.60;99.90;;;;;;4921601;29;39840;-81
2023/02/24 07:42:06;;;;;;;14.50;2.77;;;5.60;99.90;;;;;;4943002;28;38148;-81
2023/02/24 07:44:32;;;;;;;12.70;3.10;;;5.60;99.90;;;;;;4929677;29;47632;-80
2023/02/24 07:46:59;;;;;;;12.33;3.07;;;5.60;99.90;;;;;;4939423;29;39064;-80
2023/02/24 07:49:28;;;;;;;17.90;3.30;;;5.60;99.90;;;;;;4935235;28;38689;-79
2023/02/24 07:51:56;;;;;;;20.83;5.73;;;5.60;99.90;;;;;;4918122;29;37048;-78
2023/02/24 07:54:27;;;;;;;18.03;3.33;;;5.70;99.90;;;;;;4910766;28;37551;-78
2023/02/24 07:56:57;;;;;;;17.23;2.47;;;5.70;99.90;;;;;;4920569;28;38001;-77
2023/02/24 07:59:26;;;;;;;15.07;2.90;;;5.70;99.90;;;;;;4906798;29;37549;-78
2023/02/24 08:01:54;;;;;;;9.50;3.10;;;5.80;99.90;;;;;;4935174;28;38448;-78
2023/02/24 08:04:25;;;;;;;14.53;3.10;;;5.80;99.90;;;;;;4935172;28;36980;-79
2023/02/24 08:06:55;;;;;;;13.27;2.77;;;5.80;99.90;;;;;;4937843;28;37752;-78
2023/02/24 08:12:20;;;;;;;14.23;2.83;;;5.90;99.90;;;;;;4951688;28;39292;-79
2023/02/24 08:14:51;;;;;;;14.87;2.90;;;5.90;99.90;;;;;;4948171;28;36959;-79
2023/02/24 08:17:25;;;;;;;16.97;3.23;;;6.00;99.90;;;;;;4939236;28;39225;-80
2023/02/24 08:20:20;;;;;;;17.10;3.80;;;6.10;99.90;;;;;;4940521;28;38474;-78
2023/02/24 08:22:42;;;;;;;20.87;3.97;;;6.10;99.90;;;;;;4949521;28;48121;-78
2023/02/24 08:25:09;;;;;;;18.83;3.23;;;6.20;99.90;;;;;;4939907;28;37587;-79
2023/02/24 08:27:39;;;;;;;17.40;3.40;;;6.30;99.90;;;;;;4952732;28;39984;-79
2023/02/24 08:30:07;;;;;;;16.17;3.40;;;6.30;99.90;;;;;;4936480;28;37283;-78
2023/02/24 08:32:45;;;;;;;13.17;3.07;;;6.30;99.90;;;;;;4939396;28;47159;-79
2023/02/24 08:35:15;;;;;;;13.67;2.93;;;6.30;99.90;;;;;;4947102;28;36726;-78
2023/02/24 08:37:49;;;;;;;19.97;4.50;;;6.30;99.90;;;;;;4954157;28;39310;-78
2023/02/24 08:43:15;;;;;;;12.97;2.63;;;6.30;99.90;;;;;;4949492;28;38598;-80
2023/02/24 08:45:49;;;;;;;15.73;3.17;;;6.40;99.90;;;;;;4933870;28;47205;-79
2023/02/24 08:48:37;;;;;;;19.50;3.63;;;6.50;99.90;;;;;;4936021;28;39010;-81
2023/02/24 08:51:33;;;;;;;18.40;3.53;;;6.60;99.90;;;;;;4938568;28;37862;-80
2023/02/24 08:54:03;;;;;;;11.00;2.80;;;6.60;99.90;;;;;;4941346;28;37244;-80
2023/02/24 08:56:42;;;;;;;15.97;3.40;;;6.60;99.90;;;;;;4947236;28;47171;-84
2023/02/24 08:59:36;;;;;;;15.80;3.00;;;6.60;99.90;;;;;;4929286;28;38854;-82
2023/02/24 09:05:09;;;;;;;15.77;2.90;;;6.70;99.90;;;;;;4924071;28;48368;-79
2023/02/24 09:07:37;;;;;;;19.80;2.80;;;6.70;99.90;;;;;;4937873;28;47128;-79
2023/02/24 09:10:16;;;;;;;18.83;2.80;;;6.70;99.90;;;;;;4922608;28;38610;-79
2023/02/24 09:12:43;;;;;;;11.23;2.37;;;6.70;99.90;;;;;;4931928;28;47202;-78
2023/02/24 09:15:14;;;;;;;15.37;3.33;;;6.70;99.90;;;;;;4925806;28;36831;-78
2023/02/24 09:23:04;;;;;;;16.17;3.10;;;6.60;99.90;;;;;;4953036;28;39032;-78
2023/02/24 09:25:40;;;;;;;14.47;2.97;;;6.60;99.90;;;;;;4931884;28;47322;-78
2023/02/24 09:28:18;;;;;;;14.00;2.80;;;6.60;99.90;;;;;;4940920;28;37922;-78
2023/02/24 09:30:52;;;;;;;12.17;3.00;;;6.60;99.90;;;;;;4933304;28;39126;-78
2023/02/24 09:33:37;;;;;;;18.00;3.37;;;6.60;99.90;;;;;;4921228;28;38774;-78
2023/02/24 09:36:18;;;;;;;15.63;2.87;;;6.60;99.90;;;;;;4936195;28;38756;-79
2023/02/24 09:44:37;;;;;;;;;;;6.60;99.90;;;;;;4948214;28;48999;-78
2023/02/24 09:47:38;;;;;;;16.50;2.97;;;6.60;99.90;;;;;;4932417;28;36953;-78
2023/02/24 09:50:45;;;;;;;17.93;3.63;;;6.60;99.90;;;;;;4937837;28;37257;-77
2023/02/24 09:53:16;;;;;;;12.87;3.50;;;6.70;99.90;;;;;;4926102;28;37534;-78
2023/02/24 09:56:26;;;;;;;22.00;4.00;;;6.60;99.90;;;;;;4930867;28;39058;-77
2023/02/24 09:59:11;;;;;;;13.37;3.93;;;6.70;99.90;;;;;;4873207;29;47173;-78
2023/02/24 10:02:08;;;;;;;12.77;3.03;;;6.70;99.90;;;;;;4887306;29;49108;-78
2023/02/24 10:04:52;;;;;;;18.53;2.83;;;6.70;99.90;;;;;;4900754;29;47207;-78
2023/02/24 10:07:37;;;;;;;20.27;3.73;;;6.90;99.90;;;;;;4907395;28;37017;-77
2023/02/24 10:10:18;;;;;;;20.40;4.70;;;6.90;99.90;;;;;;4918236;29;36953;-78
2023/02/24 10:13:12;;;;;;;20.70;4.17;;;7.00;99.90;;;;;;4913805;29;47496;-78
2023/02/24 10:18:59;;;;;;;25.67;4.22;;;6.90;99.90;;;;;;4928813;28;38825;-77
2023/02/24 10:21:59;;;;;;;19.90;5.10;;;6.90;99.90;;;;;;4910655;29;38133;-77
2023/02/24 10:24:46;;;;;;;23.67;5.40;;;6.90;99.90;;;;;;4907287;29;35921;-77
2023/02/24 10:27:24;;;;;;;13.93;5.03;;;6.90;99.90;;;;;;4919714;28;37947;-80
2023/02/24 10:30:03;;;;;;;29.03;6.50;;;7.00;99.90;;;;;;4931324;28;38672;-78
2023/02/24 10:32:58;;;;;;;15.90;4.27;;;7.00;99.90;;;;;;4911501;29;47331;-78
2023/02/24 10:35:32;;;;;;;20.97;6.20;;;7.10;99.90;;;;;;4910287;29;37600;-78
2023/02/24 10:38:06;;;;;;;15.03;6.07;;;7.20;99.90;;;;;;4916689;29;38933;-78
2023/02/24 10:40:45;;;;;;;16.80;6.17;;;7.10;99.90;;;;;;4904664;29;47927;-78
2023/02/24 10:43:18;;;;;;;17.57;5.67;;;7.10;99.90;;;;;;4920300;29;37724;-79
2023/02/24 10:45:46;;;;;;;11.90;6.72;;;7.30;99.90;;;;;;4927512;28;37133;-78
2023/02/24 10:48:23;;;;;;;17.60;7.87;;;7.30;99.90;;;;;;4925104;29;37703;-78
2023/02/24 10:50:53;;;;;;;13.90;7.70;;;7.20;99.90;;;;;;4914732;29;39102;-78
2023/02/24 10:53:33;;;;;;;11.90;8.27;;;7.20;99.90;;;;;;4921433;28;36932;-78
2023/02/24 10:56:25;;;;;;;16.73;9.20;;;7.20;99.90;;;;;;4909518;29;37587;-78
2023/02/24 11:02:23;;;;;;;18.13;11.00;;;7.20;99.90;;;;;;4931998;28;49252;-79
2023/02/24 11:05:03;;;;;;;18.37;11.27;;;7.30;99.90;;;;;;4943242;28;47376;-80
2023/02/24 11:07:52;;;;;;;21.20;12.47;;;7.20;99.90;;;;;;4944842;28;47613;-79
2023/02/24 11:10:25;;;;;;;22.57;13.87;;;7.20;99.90;;;;;;4940794;28;39224;-78
2023/02/24 11:18:38;;;;;;;19.57;13.67;;;7.30;99.90;;;;;;4942987;28;49718;-80
2023/02/24 11:21:08;;;;;;;16.53;12.93;;;7.40;99.90;;;;;;4933478;28;37965;-79
2023/02/24 11:24:01;;;;;;;18.80;13.43;;;7.30;99.90;;;;;;4947541;28;38485;-79
2023/02/24 11:26:33;;;;;;;;;;;7.30;99.90;;;;;;4928005;28;46910;-79
2023/02/24 11:29:18;;;;;;;21.10;13.17;;;7.30;99.90;;;;;;4951523;28;37939;-79
2023/02/24 11:32:08;;;;;;;19.30;13.33;;;7.30;99.90;;;;;;4933315;28;47402;-79
2023/02/24 11:35:10;;;;;;;21.87;13.17;;;7.40;99.90;;;;;;4928878;28;48108;-79
2023/02/24 11:37:42;;;;;;;18.17;13.37;;;7.40;99.90;;;;;;4930509;28;47552;-80
2023/02/24 11:40:22;;;;;;;15.20;11.87;;;7.40;99.90;;;;;;4933203;28;38145;-79
2023/02/24 11:43:02;;;;;;;16.27;13.20;;;7.40;99.90;;;;;;4954725;28;39414;-80
2023/02/24 11:45:39;;;;;;;17.23;12.13;;;7.50;99.90;;;;;;4929938;28;47240;-80
2023/02/24 11:48:27;;;;;;;14.83;12.00;;;7.50;99.90;;;;;;4931084;28;37741;-79
2023/02/24 11:51:19;;;;;;;18.83;11.63;;;7.50;99.90;;;;;;4958246;28;37889;-79
2023/02/24 11:54:05;;;;;;;14.87;12.20;;;7.50;99.90;;;;;;4940903;28;48472;-79
2023/02/24 11:56:47;;;;;;;18.67;11.33;;;7.50;99.90;;;;;;4941425;28;48168;-78
2023/02/24 11:59:19;;;;;;;15.88;11.23;;;7.50;99.90;;;;;;4944793;28;38772;-78
2023/02/24 12:01:48;;;;;;;;;;;7.50;99.90;;;;;;4931935;28;36260;-79
2023/02/24 12:04:28;;;;;;;17.67;13.13;;;7.60;99.90;;;;;;4935057;28;38566;-78
2023/02/24 12:07:00;;;;;;;20.63;13.17;;;7.60;99.90;;;;;;4955016;28;38309;-79
2023/02/24 12:09:35;;;;;;;18.77;12.32;;;7.70;99.90;;;;;;4946342;28;47545;-78
2023/02/24 12:12:16;;;;;;;20.83;11.80;;;7.80;99.90;;;;;;4949001;28;38359;-79
2023/02/24 12:14:52;;;;;;;22.57;12.07;;;7.90;99.90;;;;;;4935279;28;37923;-77
2023/02/24 12:17:43;;;;;;;21.87;12.53;;;8.00;99.90;;;;;;4941780;28;38649;-79
2023/02/24 12:20:35;;;;;;;25.93;11.47;;;8.00;99.90;;;;;;4940561;28;38874;-79
2023/02/24 12:23:16;;;;;;;19.73;10.53;;;8.20;99.90;;;;;;4926636;28;36088;-78
2023/02/24 12:26:12;;;;;;;24.13;10.93;;;8.40;99.90;;;;;;4944788;28;48512;-78
2023/02/24 12:28:53;;;;;;;22.63;9.33;;;8.60;99.90;;;;;;4875137;28;48586;-78
2023/02/24 12:31:40;;;;;;;23.33;9.43;;;8.60;99.90;;;;;;4938554;28;35619;-78
2023/02/24 12:34:16;;;;;;;19.97;8.90;;;8.60;99.90;;;;;;4944567;28;37060;-78
2023/02/24 12:36:51;;;;;;;20.83;8.57;;;8.60;99.90;;;;;;4938477;28;40125;-77
2023/02/24 12:39:20;;;;;;;26.33;8.47;;;8.90;99.90;;;;;;4928088;28;36990;-78
2023/02/24 12:42:06;;;;;;;32.63;6.73;;;9.00;99.90;;;;;;4928336;28;39517;-78
2023/02/24 12:44:53;;;;;;;37.57;10.53;;;8.90;99.90;;;;;;4934248;28;47339;-80
2023/02/24 12:47:47;;;;;;;31.43;6.37;;;8.90;99.90;;;;;;4935824;28;38657;-80
2023/02/24 12:50:22;;;;;;;35.57;7.40;;;9.10;99.90;;;;;;4934950;28;37425;-80
2023/02/24 12:53:18;;;;;;;33.07;6.13;;;9.20;99.90;;;;;;4932404;28;36819;-80
2023/02/24 12:56:17;;;;;;;32.10;6.40;;;9.20;99.90;;;;;;4945164;28;48690;-79
2023/02/24 12:58:55;;;;;;;38.70;9.63;;;9.20;99.90;;;;;;4935929;28;47117;-78
2023/02/24 13:01:41;;;;;;;35.10;5.80;;;9.20;99.90;;;;;;4942483;28;38824;-79
2023/02/24 13:04:36;;;;;;;22.93;4.63;;;9.10;99.90;;;;;;4924078;28;36910;-79
2023/02/24 13:07:20;;;;;;;32.17;7.53;;;8.90;99.90;;;;;;4945094;28;36894;-78
2023/02/24 13:09:49;;;;;;;22.27;5.57;;;8.90;99.90;;;;;;4937279;28;38532;-78
2023/02/24 13:12:47;;;;;;;33.50;6.10;;;8.90;99.90;;;;;;4927841;28;38664;-77
2023/02/24 13:15:21;;;;;;;28.23;5.13;;;8.80;99.90;;;;;;4912184;28;38081;-76
2023/02/24 13:17:52;;;;;;;31.70;6.47;;;8.80;99.90;;;;;;4948189;28;37085;-76
2023/02/24 13:20:31;;;;;;;38.93;6.70;;;8.80;99.90;;;;;;4948290;28;38660;-76
2023/02/24 13:23:00;;;;;;;32.70;6.00;;;8.80;99.90;;;;;;4960293;28;38195;-77
2023/02/24 13:25:36;;;;;;;37.87;5.90;;;8.80;99.90;;;;;;4939765;28;39193;-76
2023/02/24 13:28:05;;;;;;;28.37;5.57;;;8.80;99.90;;;;;;4967291;28;36949;-78
2023/02/24 13:30:41;;;;;;;38.33;6.43;;;8.80;99.90;;;;;;4954675;28;38402;-76
2023/02/24 13:33:16;;;;;;;28.13;5.77;;;8.90;99.90;;;;;;4964853;28;39759;-76
2023/02/24 13:35:42;;;;;;;34.13;6.07;;;8.90;99.90;;;;;;4938018;28;36734;-75
2023/02/24 13:38:22;;;;;;;30.37;5.37;;;9.40;99.90;;;;;;4939015;28;37008;-76
2023/02/24 13:40:49;;;;;;;25.30;4.40;;;9.80;99.90;;;;;;4923786;28;38186;-77
2023/02/24 13:43:27;;;;;;;31.50;5.47;;;10.30;99.90;;;;;;4942811;28;37769;-76
2023/02/24 13:45:57;;;;;;;24.00;4.80;;;10.40;99.90;;;;;;4962794;28;38245;-76
2023/02/24 13:48:47;;;;;;;28.77;6.67;;;10.30;99.90;;;;;;4948860;28;37335;-78
2023/02/24 13:51:31;;;;;;;32.87;5.03;;;10.20;99.90;;;;;;4948100;28;38547;-76
2023/02/24 13:54:32;;;;;;;33.53;5.40;;;10.00;99.90;;;;;;4933693;28;38328;-77
2023/02/24 13:57:28;;;;;;;29.77;4.63;;;9.80;99.90;;;;;;4933747;28;47177;-75
2023/02/24 14:00:33;;;;;;;35.57;5.63;;;9.40;99.90;;;;;;4947878;28;46883;-76
2023/02/24 14:03:00;;;;;;;30.87;5.93;;;9.30;99.90;;;;;;4944643;28;48956;-77
2023/02/24 14:05:33;;;;;;;27.17;5.43;;;9.40;99.90;;;;;;4930896;28;41462;-77
2023/02/24 14:08:00;;;;;;;36.20;5.23;;;9.50;99.90;;;;;;4948482;28;38016;-76
2023/02/24 14:10:33;;;;;;;31.80;4.60;;;9.60;99.90;;;;;;4943974;28;37577;-76
2023/02/24 14:13:12;;;;;;;35.60;5.70;;;9.50;99.90;;;;;;4951793;28;38969;-76
2023/02/24 14:15:41;;;;;;;38.23;6.80;;;9.60;99.90;;;;;;4948712;28;48915;-78
2023/02/24 14:18:18;;;;;;;22.87;3.53;;;9.70;99.90;;;;;;4948166;28;36594;-77
2023/02/24 14:20:44;;;;;;;25.43;4.43;;;9.70;99.90;;;;;;4949524;28;38027;-78
2023/02/24 14:23:19;;;;;;;20.23;3.27;;;9.60;99.90;;;;;;4949797;28;40085;-77
2023/02/24 14:25:45;;;;;;;26.60;4.43;;;9.50;99.90;;;;;;4944659;28;36999;-77
2023/02/24 14:28:22;;;;;;;22.70;4.00;;;9.50;99.90;;;;;;4940861;28;37126;-76
2023/02/24 14:30:57;;;;;;;25.70;4.70;;;9.30;99.90;;;;;;4949010;28;37007;-77
2023/02/24 14:33:32;;;;;;;21.07;3.63;;;9.20;99.90;;;;;;4947828;28;38957;-77
2023/02/24 14:35:59;;;;;;;25.73;4.17;;;9.10;99.90;;;;;;4942206;28;38402;-77
2023/02/24 14:38:35;;;;;;;19.10;3.73;;;9.10;99.90;;;;;;4933587;28;37268;-76
2023/02/24 14:41:04;;;;;;;21.93;3.67;;;9.10;99.90;;;;;;4928086;28;36539;-77
2023/02/24 14:43:30;;;;;;;28.77;4.17;;;9.00;99.90;;;;;;4943667;28;39235;-76
2023/02/24 14:45:57;;;;;;;23.43;3.70;;;9.00;99.90;;;;;;4952099;28;38701;-77
2023/02/24 14:48:27;;;;;;;26.53;3.80;;;9.20;99.90;;;;;;4934076;28;38003;-76
2023/02/24 14:51:18;;;;;;;21.93;3.43;;;9.30;99.90;;;;;;4946553;28;37141;-76
2023/02/24 14:53:57;;;;;;;29.27;4.23;;;9.40;99.90;;;;;;4940146;28;46418;-76
2023/02/24 14:56:30;;;;;;;19.57;2.90;;;9.30;99.90;;;;;;4933496;28;37393;-77
2023/02/24 14:59:04;;;;;;;27.37;4.40;;;9.40;99.90;;;;;;4939276;28;37380;-76
2023/02/24 15:01:36;;;;;;;14.77;2.70;;;9.40;99.90;;;;;;4933062;28;47244;-77
2023/02/24 15:04:35;;;;;;;25.58;3.53;;;9.60;99.90;;;;;;4951360;28;38720;-77
2023/02/24 15:07:06;;;;;;;17.37;2.97;;;9.60;99.90;;;;;;4945044;28;37305;-76
2023/02/24 15:09:41;;;;;;;17.70;2.37;;;9.60;99.90;;;;;;4930712;28;47024;-78
2023/02/24 15:12:48;;;;;;;11.60;1.50;;;9.60;99.90;;;;;;4949004;28;36771;-76
2023/02/24 15:15:27;;;;;;;13.63;2.70;;;9.40;99.90;;;;;;4870261;29;37715;-76
2023/02/24 15:18:03;;;;;;;13.07;2.20;;;8.60;99.90;;;;;;4884096;29;38583;-76
2023/02/24 15:20:31;;;;;;;12.27;2.30;;;8.20;99.90;;;;;;4927842;28;48720;-77
2023/02/24 15:22:57;;;;;;;14.07;2.07;;;8.00;99.90;;;;;;4934593;28;36073;-75
2023/02/24 15:25:44;;;;;;;18.50;2.57;;;7.90;99.90;;;;;;4951867;28;39902;-77
2023/02/24 15:28:43;;;;;;;12.13;1.90;;;7.80;99.90;;;;;;4951601;28;39137;-78
2023/02/24 15:31:18;;;;;;;18.63;2.67;;;7.80;99.90;;;;;;4910440;28;37931;-77
2023/02/24 15:33:52;;;;;;;21.07;2.70;;;7.80;99.90;;;;;;4946792;28;38209;-77
2023/02/24 15:36:22;;;;;;;17.87;2.20;;;7.70;99.90;;;;;;4952274;28;38885;-76
2023/02/24 15:39:01;;;;;;;12.17;2.43;;;7.70;99.90;;;;;;4953204;28;38958;-76
2023/02/24 15:41:39;;;;;;;12.40;2.30;;;7.80;99.90;;;;;;4945715;28;46741;-79
2023/02/24 15:44:20;;;;;;;17.63;2.47;;;8.10;99.90;;;;;;4953432;28;37962;-78
2023/02/24 15:46:46;;;;;;;17.90;2.43;;;8.20;99.90;;;;;;4937492;28;37862;-78
2023/02/24 15:49:12;;;;;;;14.87;2.47;;;8.10;99.90;;;;;;4945897;28;37365;-79
2023/02/24 15:51:47;;;;;;;21.67;2.90;;;8.00;99.90;;;;;;4960283;28;38403;-76
2023/02/24 15:54:29;;;;;;;16.23;2.60;;;7.80;99.90;;;;;;4946160;28;35741;-76
2023/02/24 15:56:58;;;;;;;14.65;3.15;;;7.80;99.90;;;;;;4951243;28;38002;-75
2023/02/24 15:59:27;;;;;;;15.13;2.47;;;7.70;99.90;;;;;;4955838;28;36954;-75
2023/02/24 16:01:54;;;;;;;12.93;2.13;;;7.60;99.90;;;;;;4944044;28;37199;-75
2023/02/24 16:04:21;;;;;;;14.77;2.30;;;7.50;99.90;;;;;;4941404;28;37057;-76
2023/02/24 16:06:54;;;;;;;15.50;2.07;;;7.50;99.90;;;;;;4942305;28;38729;-75
2023/02/24 16:09:36;;;;;;;15.03;2.03;;;7.60;99.90;;;;;;4941502;28;37559;-76
2023/02/24 16:12:07;;;;;;;15.38;2.20;;;7.50;99.90;;;;;;4950978;28;38213;-76
2023/02/24 16:14:33;;;;;;;12.17;2.50;;;7.50;99.90;;;;;;4929100;28;36073;-76
2023/02/24 16:17:03;;;;;;;11.97;2.10;;;7.50;99.90;;;;;;4950074;28;38737;-76
2023/02/24 16:19:29;;;;;;;12.43;2.00;;;7.50;99.90;;;;;;4952334;28;48840;-76
2023/02/24 16:21:55;;;;;;;12.93;2.37;;;7.50;99.90;;;;;;4937764;28;37026;-77
2023/02/24 16:24:21;;;;;;;10.63;1.87;;;7.60;99.90;;;;;;4940581;28;35818;-76
2023/02/24 16:26:47;;;;;;;13.57;2.10;;;7.70;99.90;;;;;;4937442;28;38709;-75
2023/02/24 16:29:14;;;;;;;11.57;1.80;;;7.90;99.90;;;;;;4943997;28;38662;-75
2023/02/24 16:31:41;;;;;;;13.50;1.70;;;7.80;99.90;;;;;;4952630;28;38177;-75
2023/02/24 16:34:07;;;;;;;12.80;1.70;;;7.60;99.90;;;;;;4940136;28;36999;-75
2023/02/24 16:36:34;;;;;;;12.77;2.17;;;7.40;99.90;;;;;;4952457;28;39925;-76
2023/02/24 16:39:00;;;;;;;12.43;1.77;;;7.30;99.90;;;;;;4951475;28;39277;-76
2023/02/24 16:41:26;;;;;;;13.83;1.80;;;7.20;99.90;;;;;;4951996;28;41671;-76
2023/02/24 16:43:52;;;;;;;15.57;1.80;;;7.20;99.90;;;;;;4923880;28;36394;-77
2023/02/24 16:46:21;;;;;;;16.07;1.77;;;7.10;99.90;;;;;;4934111;28;39709;-77
2023/02/24 16:48:49;;;;;;;14.07;1.83;;;7.00;99.90;;;;;;4940236;28;37353;-75
2023/02/24 16:51:16;;;;;;;14.93;2.00;;;6.90;99.90;;;;;;4936988;28;37274;-75
2023/02/24 16:53:42;;;;;;;14.07;1.83;;;6.80;99.90;;;;;;4933539;28;37383;-77
2023/02/24 16:56:09;;;;;;;5.43;1.10;;;6.70;99.90;;;;;;4935342;28;37445;-75
2023/02/24 16:58:35;;;;;;;17.20;2.53;;;6.80;99.90;;;;;;4947855;28;37366;-75
2023/02/24 17:01:03;;;;;;;15.37;3.50;;;6.80;99.90;;;;;;4934426;28;37224;-76
2023/02/24 17:03:44;;;;;;;17.70;2.10;;;6.90;99.90;;;;;;4962789;28;48874;-76
2023/02/24 17:06:11;;;;;;;12.80;1.77;;;6.90;99.90;;;;;;4952167;28;39388;-75
2023/02/24 17:08:37;;;;;;;20.33;2.43;;;7.00;99.90;;;;;;4939155;28;38326;-75
2023/02/24 17:11:03;;;;;;;13.33;2.57;;;7.10;99.90;;;;;;4942679;28;39555;-77
2023/02/24 17:13:29;;;;;;;14.77;2.43;;;7.20;99.90;;;;;;4954784;28;36634;-76
2023/02/24 17:15:56;;;;;;;11.20;1.87;;;7.10;99.90;;;;;;4936878;28;38044;-76
2023/02/24 17:18:23;;;;;;;11.37;1.83;;;7.20;99.90;;;;;;4950406;28;38714;-76
2023/02/24 17:20:49;;;;;;;17.20;2.50;;;7.10;99.90;;;;;;4947742;28;37717;-76
2023/02/24 17:23:15;;;;;;;15.17;2.30;;;7.10;99.90;;;;;;4945087;28;37158;-75
2023/02/24 17:25:41;;;;;;;18.37;2.90;;;7.10;99.90;;;;;;4939869;28;39077;-76
2023/02/24 17:28:09;;;;;;;21.07;3.03;;;7.20;99.90;;;;;;4935066;28;38963;-77
2023/02/24 17:30:36;;;;;;;19.83;3.50;;;7.20;99.90;;;;;;4952689;28;38303;-76
2023/02/24 17:33:02;;;;;;;15.73;2.90;;;7.30;99.90;;;;;;4953866;28;38050;-76
2023/02/24 17:35:29;;;;;;;16.37;3.20;;;7.30;99.90;;;;;;4952421;28;39644;-76
2023/02/24 17:37:55;;;;;;;22.07;3.67;;;7.30;99.90;;;;;;4960818;28;37971;-75
2023/02/24 17:40:21;;;;;;;25.70;3.90;;;7.40;99.90;;;;;;4962911;28;38740;-75
2023/02/24 17:42:48;;;;;;;17.80;3.97;;;7.40;99.90;;;;;;4953587;28;37872;-75
2023/02/24 17:45:14;;;;;;;20.10;3.97;;;7.40;99.90;;;;;;4942080;28;37679;-76
2023/02/24 17:47:41;;;;;;;20.97;2.67;;;7.40;99.90;;;;;;4954454;28;39175;-76
2023/02/24 17:50:10;;;;;;;13.23;2.60;;;7.30;99.90;;;;;;4961954;28;38203;-76